createdAt,value
2022-12-12T00:03:31.007Z,15.20
2022-12-12T00:08:33.170Z,13.95
2022-12-12T00:13:35.794Z,13.90
2022-12-12T00:18:38.159Z,14.82
2022-12-12T00:23:40.022Z,15.02
2022-12-12T00:28:41.591Z,14.15
2022-12-12T00:33:45.042Z,14.35
2022-12-12T00:38:47.168Z,14.43
2022-12-12T00:43:49.187Z,14.70
2022-12-12T00:48:55.274Z,15.38
2022-12-12T00:53:58.383Z,14.27
2022-12-12T00:59:01.556Z,13.30
2022-12-12T01:04:04.868Z,14.43
2022-12-12T01:09:06.443Z,14.35
2022-12-12T01:14:08.039Z,13.40
2022-12-12T01:19:10.033Z,13.95
2022-12-12T01:24:11.619Z,13.57
2022-12-12T01:29:13.222Z,12.70
2022-12-12T01:34:14.798Z,13.63
2022-12-12T01:39:16.400Z,13.40
2022-12-12T01:44:46.543Z,14.43
2022-12-12T01:49:51.527Z,13.95
2022-12-12T01:54:58.178Z,13.45
2022-12-12T02:00:01.632Z,13.55
2022-12-12T02:05:11.770Z,14.57
2022-12-12T02:10:13.535Z,11.77
2022-12-12T02:15:15.451Z,14.18
2022-12-12T02:20:26.244Z,13.32
2022-12-12T02:25:42.771Z,13.50
2022-12-12T02:31:15.556Z,13.80
2022-12-12T02:36:32.496Z,12.88
2022-12-12T02:41:47.954Z,13.75
2022-12-12T02:47:06.461Z,13.43
2022-12-12T02:52:09.908Z,13.48
2022-12-12T02:57:25.808Z,13.77
2022-12-12T03:03:16.810Z,13.15
2022-12-12T03:08:39.792Z,13.25
2022-12-12T03:13:58.685Z,13.35
2022-12-12T03:19:25.841Z,11.03
2022-12-12T03:24:39.601Z,13.32
2022-12-12T03:29:48.386Z,13.75
2022-12-12T03:35:04.307Z,13.33
2022-12-12T03:40:10.334Z,14.07
2022-12-12T03:45:12.329Z,11.50
2022-12-12T03:50:20.103Z,13.43
2022-12-12T03:55:32.490Z,13.15
2022-12-12T04:00:37.459Z,13.38
2022-12-12T04:06:03.633Z,12.48
2022-12-12T04:11:32.308Z,13.73
2022-12-12T04:16:39.921Z,13.53
2022-12-12T04:22:18.080Z,12.48
2022-12-12T04:27:25.788Z,12.70
2022-12-12T04:32:34.105Z,12.25
2022-12-12T04:37:50.246Z,12.07
2022-12-12T04:48:01.010Z,11.40
2022-12-12T04:53:11.144Z,12.80
2022-12-12T04:58:17.466Z,12.32
2022-12-12T05:03:28.865Z,12.38
2022-12-12T05:08:33.546Z,11.70
2022-12-12T05:13:40.751Z,12.32
2022-12-12T05:18:42.306Z,12.63
2022-12-12T05:23:43.929Z,12.50
2022-12-12T05:28:45.491Z,11.63
2022-12-12T05:33:47.398Z,12.15
2022-12-12T05:38:49.021Z,12.65
2022-12-12T05:43:50.606Z,12.07
2022-12-12T05:48:52.239Z,12.55
2022-12-12T05:53:53.803Z,11.52
2022-12-12T05:58:55.329Z,11.57
2022-12-12T06:03:57.070Z,11.73
2022-12-12T06:08:58.717Z,11.05
2022-12-12T06:14:00.274Z,11.23
2022-12-12T06:19:02.217Z,10.18
2022-12-12T06:24:05.989Z,10.82
2022-12-12T06:29:07.834Z,10.65
2022-12-12T06:34:09.378Z,10.73
2022-12-12T06:39:11.103Z,11.05
2022-12-12T06:44:12.881Z,9.90
2022-12-12T06:49:14.532Z,9.93
2022-12-12T06:54:18.576Z,10.85
2022-12-12T06:59:20.139Z,11.95
2022-12-12T07:04:21.682Z,10.55
2022-12-12T07:09:23.255Z,11.88
2022-12-12T07:14:24.852Z,13.63
2022-12-12T07:19:26.474Z,9.75
2022-12-12T07:24:28.322Z,10.70
2022-12-12T07:29:29.948Z,9.35
2022-12-12T07:34:31.599Z,9.88
2022-12-12T07:39:34.062Z,10.32
2022-12-12T07:44:35.671Z,10.05
2022-12-12T07:49:37.621Z,10.05
2022-12-12T07:54:39.474Z,9.25
2022-12-12T07:59:41.109Z,9.73
2022-12-12T08:04:42.704Z,9.85
2022-12-12T08:09:44.322Z,9.25
2022-12-12T08:14:45.869Z,9.68
2022-12-12T08:19:47.487Z,9.00
2022-12-12T08:24:49.991Z,9.23
2022-12-12T08:29:54.816Z,9.10
2022-12-12T08:34:58.177Z,9.27
2022-12-12T08:39:59.733Z,9.45
2022-12-12T08:45:01.287Z,9.20
2022-12-12T08:50:03.452Z,9.13
2022-12-12T08:55:05.236Z,9.23
2022-12-12T09:00:07.300Z,9.02
2022-12-12T09:05:09.528Z,8.00
2022-12-12T09:10:11.466Z,8.90
2022-12-12T09:15:13.285Z,9.07
2022-12-12T09:20:15.669Z,8.30
2022-12-12T09:25:17.612Z,8.23
2022-12-12T09:30:19.341Z,7.88
2022-12-12T09:35:20.952Z,8.27
2022-12-12T09:40:32.431Z,7.57
2022-12-12T09:45:36.598Z,7.80
2022-12-12T09:50:46.647Z,7.90
2022-12-12T09:56:08.203Z,7.35
2022-12-12T10:01:25.766Z,7.78
2022-12-12T10:06:38.086Z,8.77
2022-12-12T10:11:51.272Z,8.32
2022-12-12T10:16:57.817Z,8.48
2022-12-12T10:22:12.232Z,8.10
2022-12-12T10:27:14.804Z,8.02
2022-12-12T10:32:31.346Z,7.72
2022-12-12T10:37:48.757Z,8.80
2022-12-12T10:43:18.033Z,8.27
2022-12-12T10:48:20.041Z,8.40
2022-12-12T10:53:23.175Z,7.22
2022-12-12T10:58:27.126Z,7.65
2022-12-12T11:03:33.316Z,9.13
2022-12-12T11:08:36.159Z,7.75
2022-12-12T11:13:46.903Z,8.15
2022-12-12T11:19:00.283Z,8.10
2022-12-12T11:24:08.662Z,8.30
2022-12-12T11:29:42.772Z,8.50
2022-12-12T11:34:49.298Z,7.75
2022-12-12T11:39:53.128Z,8.02
2022-12-12T11:45:09.981Z,7.90
2022-12-12T11:50:20.120Z,8.00
2022-12-12T11:55:36.282Z,6.93
2022-12-12T12:00:46.069Z,6.18
2022-12-12T12:06:07.010Z,6.93
2022-12-12T12:11:24.117Z,6.22
2022-12-12T12:16:55.285Z,6.32
2022-12-12T12:22:21.013Z,5.85
2022-12-12T12:27:47.587Z,5.32
2022-12-12T12:33:35.588Z,5.65
2022-12-12T12:38:45.859Z,6.25
2022-12-12T12:43:53.609Z,6.07
2022-12-12T12:49:04.335Z,4.80
2022-12-12T12:54:13.415Z,7.53
2022-12-12T12:59:22.944Z,9.13
2022-12-12T13:09:40.018Z,4.10
2022-12-12T13:14:49.240Z,3.92
2022-12-12T13:19:56.342Z,3.95
2022-12-12T13:25:03.765Z,4.50
2022-12-12T13:30:19.754Z,4.78
2022-12-12T13:35:31.422Z,5.18
2022-12-12T13:40:41.487Z,4.70
2022-12-12T13:45:45.389Z,4.57
2022-12-12T13:50:46.973Z,3.42
2022-12-12T13:55:48.636Z,4.15
2022-12-12T14:01:28.881Z,4.10
2022-12-12T14:06:31.177Z,7.00
2022-12-12T14:11:36.877Z,7.40
2022-12-12T14:16:38.751Z,5.30
2022-12-12T14:21:46.850Z,5.70
2022-12-12T14:26:49.547Z,3.83
2022-12-12T14:32:15.077Z,4.93
2022-12-12T14:37:34.592Z,4.55
2022-12-12T14:43:19.385Z,4.57
2022-12-12T14:48:25.203Z,3.55
2022-12-12T14:53:32.370Z,4.18
2022-12-12T14:58:38.776Z,4.18
2022-12-12T15:03:47.398Z,4.13
2022-12-12T15:08:49.977Z,4.13
2022-12-12T15:13:56.552Z,4.68
2022-12-12T15:19:00.106Z,4.72
2022-12-12T15:24:01.794Z,5.32
2022-12-12T15:29:04.446Z,6.00
2022-12-12T15:34:31.952Z,4.15
2022-12-12T15:39:33.624Z,4.38
2022-12-12T15:44:36.581Z,4.28
2022-12-12T15:49:43.363Z,3.38
2022-12-12T15:54:51.146Z,3.83
2022-12-12T16:00:45.127Z,4.38
2022-12-12T16:05:59.424Z,4.65
2022-12-12T16:11:07.000Z,5.07
2022-12-12T16:16:47.264Z,4.35
2022-12-12T16:21:48.943Z,5.22
2022-12-12T16:26:51.355Z,4.70
2022-12-12T16:31:53.120Z,4.65
2022-12-12T16:36:54.748Z,5.10
2022-12-12T16:41:56.443Z,4.35
2022-12-12T16:46:58.003Z,3.90
2022-12-12T16:51:59.650Z,3.88
2022-12-12T16:57:01.391Z,3.58
2022-12-12T17:02:03.630Z,4.07
2022-12-12T17:07:08.067Z,3.88
2022-12-12T17:12:11.807Z,4.28
2022-12-12T17:17:13.396Z,3.90
2022-12-12T17:22:15.334Z,3.30
2022-12-12T17:27:16.873Z,4.32
2022-12-12T17:32:24.119Z,3.95
2022-12-12T17:37:26.338Z,4.18
2022-12-12T17:42:32.010Z,5.07
2022-12-12T17:47:33.860Z,5.15
2022-12-12T17:52:35.581Z,3.90
2022-12-12T17:57:37.209Z,4.00
2022-12-12T18:02:40.223Z,3.90
2022-12-12T18:07:41.786Z,4.15
2022-12-12T18:12:46.868Z,4.10
2022-12-12T18:17:51.451Z,4.53
2022-12-12T18:22:55.075Z,4.15
2022-12-12T18:27:56.680Z,5.38
2022-12-12T18:33:02.741Z,5.68
2022-12-12T18:38:04.796Z,5.57
2022-12-12T18:43:07.002Z,5.32
2022-12-12T18:48:08.547Z,5.35
2022-12-12T18:53:10.094Z,5.85
2022-12-12T18:58:12.174Z,7.03
2022-12-12T19:03:13.744Z,7.00
2022-12-12T19:08:15.337Z,10.05
2022-12-12T19:13:16.933Z,6.10
2022-12-12T19:18:18.950Z,6.40
2022-12-12T19:23:20.476Z,6.35
2022-12-12T19:28:22.023Z,6.53
2022-12-12T19:33:23.592Z,7.72
2022-12-12T19:38:25.240Z,7.05
2022-12-12T19:43:30.426Z,7.53
2022-12-12T19:48:32.218Z,6.60
2022-12-12T19:53:36.625Z,6.90
2022-12-12T19:58:38.856Z,7.32
2022-12-12T20:03:41.481Z,8.20
2022-12-12T20:08:43.205Z,7.30
2022-12-12T20:14:15.233Z,7.53
2022-12-12T20:19:17.774Z,7.93
2022-12-12T20:24:25.554Z,7.18
2022-12-12T20:29:27.437Z,6.45
2022-12-12T20:34:29.541Z,6.43
2022-12-12T20:39:31.766Z,6.07
2022-12-12T20:44:33.350Z,6.30
2022-12-12T20:49:34.913Z,6.88
2022-12-12T20:54:36.546Z,6.75
2022-12-12T20:59:38.314Z,6.78
2022-12-12T21:04:39.854Z,7.70
2022-12-12T21:09:41.401Z,6.18
2022-12-12T21:14:42.949Z,6.70
2022-12-12T21:19:44.809Z,5.45
2022-12-12T21:24:46.382Z,6.07
2022-12-12T21:29:47.992Z,5.32
2022-12-12T21:34:49.533Z,6.05
2022-12-12T21:39:53.226Z,4.82
2022-12-12T21:44:54.799Z,6.05
2022-12-12T21:49:56.427Z,5.47
2022-12-12T21:54:57.962Z,5.50
2022-12-12T21:59:59.512Z,5.65
2022-12-12T22:05:01.043Z,6.20
2022-12-12T22:10:11.465Z,6.28
2022-12-12T22:15:13.708Z,6.20
2022-12-12T22:20:15.539Z,5.40
2022-12-12T22:25:17.281Z,6.55
2022-12-12T22:30:18.858Z,5.35
2022-12-12T22:35:20.420Z,5.83
2022-12-12T22:40:21.963Z,5.78
2022-12-12T22:45:23.557Z,5.18
2022-12-12T22:50:25.152Z,7.30
2022-12-12T22:55:26.703Z,5.40
2022-12-12T23:00:28.892Z,5.20
2022-12-12T23:05:30.900Z,5.65
2022-12-12T23:10:32.513Z,6.43
2022-12-12T23:15:38.730Z,6.45
2022-12-12T23:20:40.264Z,6.65
2022-12-12T23:25:41.805Z,5.72
2022-12-12T23:30:43.402Z,6.47
2022-12-12T23:35:49.341Z,6.38
2022-12-12T23:40:50.895Z,5.00
2022-12-12T23:45:52.450Z,6.95
2022-12-12T23:50:53.998Z,6.72
2022-12-12T23:55:55.653Z,6.88
